sensor_id;sensor_type;location;lat;lon;timestamp;P1;durP1;ratioP1;P2;durP2;ratioP2
51602;SDS011;37954;51.980;5.850;2023-05-01T00:01:28;3.00;;;1.83;;
51602;SDS011;37954;51.980;5.850;2023-05-01T00:05:40;7.80;;;2.17;;
51602;SDS011;37954;51.980;5.850;2023-05-01T00:09:51;3.28;;;2.15;;
51602;SDS011;37954;51.980;5.850;2023-05-01T00:14:03;3.13;;;2.08;;
51602;SDS011;37954;51.980;5.850;2023-05-01T00:18:14;4.35;;;2.40;;
51602;SDS011;37954;51.980;5.850;2023-05-01T00:22:27;4.45;;;2.10;;
51602;SDS011;37954;51.980;5.850;2023-05-01T00:26:38;1.98;;;1.75;;
51602;SDS011;37954;51.980;5.850;2023-05-01T00:30:50;2.33;;;1.80;;
51602;SDS011;37954;51.980;5.850;2023-05-01T00:35:02;3.42;;;2.20;;
51602;SDS011;37954;51.980;5.850;2023-05-01T00:39:14;2.80;;;1.80;;
51602;SDS011;37954;51.980;5.850;2023-05-01T00:43:25;2.35;;;1.80;;
51602;SDS011;37954;51.980;5.850;2023-05-01T00:47:37;2.78;;;1.90;;
51602;SDS011;37954;51.980;5.850;2023-05-01T00:51:48;5.05;;;2.08;;
51602;SDS011;37954;51.980;5.850;2023-05-01T00:56:03;3.03;;;1.83;;
51602;SDS011;37954;51.980;5.850;2023-05-01T01:00:15;3.17;;;2.10;;
51602;SDS011;37954;51.980;5.850;2023-05-01T01:04:27;3.15;;;1.80;;
51602;SDS011;37954;51.980;5.850;2023-05-01T01:08:46;3.28;;;1.75;;
51602;SDS011;37954;51.980;5.850;2023-05-01T01:22:17;3.40;;;1.98;;
51602;SDS011;37954;51.980;5.850;2023-05-01T01:31:08;2.33;;;1.77;;
51602;SDS011;37954;51.980;5.850;2023-05-01T01:35:25;4.47;;;1.90;;
51602;SDS011;37954;51.980;5.850;2023-05-01T01:39:45;5.03;;;2.08;;
51602;SDS011;37954;51.980;5.850;2023-05-01T01:44:17;3.55;;;1.67;;
51602;SDS011;37954;51.980;5.850;2023-05-01T01:48:33;4.63;;;1.95;;
51602;SDS011;37954;51.980;5.850;2023-05-01T01:52:49;2.13;;;1.50;;
51602;SDS011;37954;51.980;5.850;2023-05-01T01:57:03;3.42;;;2.00;;
51602;SDS011;37954;51.980;5.850;2023-05-01T02:01:17;3.33;;;1.83;;
51602;SDS011;37954;51.980;5.850;2023-05-01T02:05:31;3.72;;;1.80;;
51602;SDS011;37954;51.980;5.850;2023-05-01T02:09:44;1.60;;;1.50;;
51602;SDS011;37954;51.980;5.850;2023-05-01T02:13:56;3.25;;;1.75;;
51602;SDS011;37954;51.980;5.850;2023-05-01T02:18:12;4.18;;;2.28;;
51602;SDS011;37954;51.980;5.850;2023-05-01T02:22:25;5.60;;;1.70;;
51602;SDS011;37954;51.980;5.850;2023-05-01T02:26:42;4.22;;;1.63;;
51602;SDS011;37954;51.980;5.850;2023-05-01T02:30:59;3.78;;;1.80;;
51602;SDS011;37954;51.980;5.850;2023-05-01T02:35:11;3.83;;;1.90;;
51602;SDS011;37954;51.980;5.850;2023-05-01T02:39:22;2.60;;;1.58;;
51602;SDS011;37954;51.980;5.850;2023-05-01T02:43:34;6.47;;;1.95;;
51602;SDS011;37954;51.980;5.850;2023-05-01T02:47:48;5.07;;;1.83;;
51602;SDS011;37954;51.980;5.850;2023-05-01T02:52:02;4.38;;;2.15;;
51602;SDS011;37954;51.980;5.850;2023-05-01T02:56:15;3.15;;;1.77;;
51602;SDS011;37954;51.980;5.850;2023-05-01T03:00:26;2.67;;;1.77;;
51602;SDS011;37954;51.980;5.850;2023-05-01T03:04:38;2.67;;;1.70;;
51602;SDS011;37954;51.980;5.850;2023-05-01T03:08:50;3.45;;;2.17;;
51602;SDS011;37954;51.980;5.850;2023-05-01T03:13:01;4.70;;;1.95;;
51602;SDS011;37954;51.980;5.850;2023-05-01T03:17:13;3.13;;;1.98;;
51602;SDS011;37954;51.980;5.850;2023-05-01T03:21:25;3.78;;;2.03;;
51602;SDS011;37954;51.980;5.850;2023-05-01T03:25:36;2.65;;;2.00;;
51602;SDS011;37954;51.980;5.850;2023-05-01T03:29:48;2.78;;;2.05;;
51602;SDS011;37954;51.980;5.850;2023-05-01T03:34:00;2.83;;;2.10;;
51602;SDS011;37954;51.980;5.850;2023-05-01T03:38:11;3.00;;;1.92;;
51602;SDS011;37954;51.980;5.850;2023-05-01T03:42:55;4.50;;;2.25;;
51602;SDS011;37954;51.980;5.850;2023-05-01T03:47:07;2.80;;;2.13;;
51602;SDS011;37954;51.980;5.850;2023-05-01T03:51:24;3.95;;;2.08;;
51602;SDS011;37954;51.980;5.850;2023-05-01T03:55:37;4.05;;;2.35;;
51602;SDS011;37954;51.980;5.850;2023-05-01T03:59:50;4.47;;;2.40;;
51602;SDS011;37954;51.980;5.850;2023-05-01T04:04:03;3.63;;;2.00;;
51602;SDS011;37954;51.980;5.850;2023-05-01T04:08:15;4.03;;;1.92;;
51602;SDS011;37954;51.980;5.850;2023-05-01T04:12:26;2.47;;;2.08;;
51602;SDS011;37954;51.980;5.850;2023-05-01T04:16:38;4.90;;;2.20;;
51602;SDS011;37954;51.980;5.850;2023-05-01T04:20:50;2.33;;;1.80;;
51602;SDS011;37954;51.980;5.850;2023-05-01T04:25:02;4.95;;;2.10;;
51602;SDS011;37954;51.980;5.850;2023-05-01T04:29:14;5.78;;;2.20;;
51602;SDS011;37954;51.980;5.850;2023-05-01T04:33:27;3.05;;;1.77;;
51602;SDS011;37954;51.980;5.850;2023-05-01T04:37:39;4.22;;;2.05;;
51602;SDS011;37954;51.980;5.850;2023-05-01T04:41:51;3.22;;;1.95;;
51602;SDS011;37954;51.980;5.850;2023-05-01T04:46:03;5.20;;;2.22;;
51602;SDS011;37954;51.980;5.850;2023-05-01T04:50:14;3.35;;;2.20;;
51602;SDS011;37954;51.980;5.850;2023-05-01T04:54:26;3.85;;;2.10;;
51602;SDS011;37954;51.980;5.850;2023-05-01T04:58:38;3.53;;;2.67;;
51602;SDS011;37954;51.980;5.850;2023-05-01T05:02:54;4.82;;;2.33;;
51602;SDS011;37954;51.980;5.850;2023-05-01T05:07:08;5.43;;;2.20;;
51602;SDS011;37954;51.980;5.850;2023-05-01T05:11:55;5.75;;;2.40;;
51602;SDS011;37954;51.980;5.850;2023-05-01T05:16:07;3.63;;;2.40;;
51602;SDS011;37954;51.980;5.850;2023-05-01T05:20:18;8.57;;;2.55;;
51602;SDS011;37954;51.980;5.850;2023-05-01T05:24:30;3.95;;;2.28;;
51602;SDS011;37954;51.980;5.850;2023-05-01T05:28:42;3.38;;;2.15;;
51602;SDS011;37954;51.980;5.850;2023-05-01T05:32:54;3.42;;;2.38;;
51602;SDS011;37954;51.980;5.850;2023-05-01T05:37:06;2.75;;;2.30;;
51602;SDS011;37954;51.980;5.850;2023-05-01T05:41:25;3.80;;;2.20;;
51602;SDS011;37954;51.980;5.850;2023-05-01T05:45:41;5.55;;;2.63;;
51602;SDS011;37954;51.980;5.850;2023-05-01T05:49:53;2.72;;;1.77;;
51602;SDS011;37954;51.980;5.850;2023-05-01T05:54:06;3.25;;;1.85;;
51602;SDS011;37954;51.980;5.850;2023-05-01T05:58:19;4.88;;;2.55;;
51602;SDS011;37954;51.980;5.850;2023-05-01T06:02:33;2.38;;;1.80;;
51602;SDS011;37954;51.980;5.850;2023-05-01T06:06:44;2.85;;;2.00;;
51602;SDS011;37954;51.980;5.850;2023-05-01T06:10:57;3.33;;;2.47;;
51602;SDS011;37954;51.980;5.850;2023-05-01T06:15:10;2.83;;;2.53;;
51602;SDS011;37954;51.980;5.850;2023-05-01T06:19:27;3.25;;;2.22;;
51602;SDS011;37954;51.980;5.850;2023-05-01T06:23:48;5.75;;;2.63;;
51602;SDS011;37954;51.980;5.850;2023-05-01T06:28:13;3.92;;;2.33;;
51602;SDS011;37954;51.980;5.850;2023-05-01T06:32:25;7.00;;;2.90;;
51602;SDS011;37954;51.980;5.850;2023-05-01T06:36:37;6.22;;;2.50;;
51602;SDS011;37954;51.980;5.850;2023-05-01T06:40:48;10.98;;;3.00;;
51602;SDS011;37954;51.980;5.850;2023-05-01T06:45:00;3.15;;;2.55;;
51602;SDS011;37954;51.980;5.850;2023-05-01T06:49:11;3.20;;;2.55;;
51602;SDS011;37954;51.980;5.850;2023-05-01T06:53:23;4.22;;;2.95;;
51602;SDS011;37954;51.980;5.850;2023-05-01T06:57:34;4.97;;;2.85;;
51602;SDS011;37954;51.980;5.850;2023-05-01T07:01:46;6.05;;;2.97;;
51602;SDS011;37954;51.980;5.850;2023-05-01T07:05:59;4.47;;;2.72;;
51602;SDS011;37954;51.980;5.850;2023-05-01T07:10:10;7.28;;;3.05;;
51602;SDS011;37954;51.980;5.850;2023-05-01T07:14:22;5.22;;;3.25;;
51602;SDS011;37954;51.980;5.850;2023-05-01T07:18:34;4.63;;;2.88;;
51602;SDS011;37954;51.980;5.850;2023-05-01T07:22:45;5.15;;;2.85;;
51602;SDS011;37954;51.980;5.850;2023-05-01T07:26:57;5.25;;;3.25;;
51602;SDS011;37954;51.980;5.850;2023-05-01T07:31:10;6.30;;;3.10;;
51602;SDS011;37954;51.980;5.850;2023-05-01T07:35:22;6.47;;;3.08;;
51602;SDS011;37954;51.980;5.850;2023-05-01T07:39:34;4.95;;;3.35;;
51602;SDS011;37954;51.980;5.850;2023-05-01T07:43:46;3.72;;;3.05;;
51602;SDS011;37954;51.980;5.850;2023-05-01T07:47:58;5.97;;;3.10;;
51602;SDS011;37954;51.980;5.850;2023-05-01T07:52:10;4.28;;;2.95;;
51602;SDS011;37954;51.980;5.850;2023-05-01T07:56:21;6.93;;;3.40;;
51602;SDS011;37954;51.980;5.850;2023-05-01T08:00:33;7.35;;;3.85;;
51602;SDS011;37954;51.980;5.850;2023-05-01T08:04:45;4.97;;;3.00;;
51602;SDS011;37954;51.980;5.850;2023-05-01T08:08:58;5.93;;;3.55;;
51602;SDS011;37954;51.980;5.850;2023-05-01T08:13:09;5.03;;;3.10;;
51602;SDS011;37954;51.980;5.850;2023-05-01T08:17:21;6.50;;;3.28;;
51602;SDS011;37954;51.980;5.850;2023-05-01T08:21:33;5.07;;;3.30;;
51602;SDS011;37954;51.980;5.850;2023-05-01T08:25:44;4.38;;;3.25;;
51602;SDS011;37954;51.980;5.850;2023-05-01T08:29:57;4.50;;;3.30;;
51602;SDS011;37954;51.980;5.850;2023-05-01T08:34:09;4.22;;;3.03;;
51602;SDS011;37954;51.980;5.850;2023-05-01T08:38:20;5.05;;;3.13;;
51602;SDS011;37954;51.980;5.850;2023-05-01T08:42:32;3.22;;;2.92;;
51602;SDS011;37954;51.980;5.850;2023-05-01T08:46:46;3.50;;;3.20;;
51602;SDS011;37954;51.980;5.850;2023-05-01T08:51:01;5.03;;;3.10;;
51602;SDS011;37954;51.980;5.850;2023-05-01T08:55:14;6.00;;;2.97;;
51602;SDS011;37954;51.980;5.850;2023-05-01T08:59:26;4.55;;;3.38;;
51602;SDS011;37954;51.980;5.850;2023-05-01T09:03:40;4.78;;;2.67;;
51602;SDS011;37954;51.980;5.850;2023-05-01T09:07:54;9.15;;;3.30;;
51602;SDS011;37954;51.980;5.850;2023-05-01T09:12:28;6.20;;;3.00;;
51602;SDS011;37954;51.980;5.850;2023-05-01T09:16:39;4.20;;;2.80;;
51602;SDS011;37954;51.980;5.850;2023-05-01T09:20:51;3.38;;;2.90;;
51602;SDS011;37954;51.980;5.850;2023-05-01T09:25:05;4.65;;;2.78;;
51602;SDS011;37954;51.980;5.850;2023-05-01T09:29:50;3.78;;;2.90;;
51602;SDS011;37954;51.980;5.850;2023-05-01T09:33:56;3.53;;;2.33;;
51602;SDS011;37954;51.980;5.850;2023-05-01T09:38:08;4.07;;;2.70;;
51602;SDS011;37954;51.980;5.850;2023-05-01T09:42:24;2.70;;;2.50;;
51602;SDS011;37954;51.980;5.850;2023-05-01T09:46:40;4.45;;;2.60;;
51602;SDS011;37954;51.980;5.850;2023-05-01T09:50:54;4.13;;;3.00;;
51602;SDS011;37954;51.980;5.850;2023-05-01T09:55:15;3.80;;;2.72;;
51602;SDS011;37954;51.980;5.850;2023-05-01T09:59:28;3.88;;;2.67;;
51602;SDS011;37954;51.980;5.850;2023-05-01T10:03:42;2.05;;;1.85;;
51602;SDS011;37954;51.980;5.850;2023-05-01T10:07:55;2.28;;;1.95;;
51602;SDS011;37954;51.980;5.850;2023-05-01T10:12:07;2.72;;;2.53;;
51602;SDS011;37954;51.980;5.850;2023-05-01T10:16:28;2.65;;;2.00;;
51602;SDS011;37954;51.980;5.850;2023-05-01T10:20:40;3.50;;;2.47;;
51602;SDS011;37954;51.980;5.850;2023-05-01T10:24:53;3.47;;;2.15;;
51602;SDS011;37954;51.980;5.850;2023-05-01T10:29:04;1.95;;;1.70;;
51602;SDS011;37954;51.980;5.850;2023-05-01T10:33:16;3.40;;;2.20;;
51602;SDS011;37954;51.980;5.850;2023-05-01T10:37:33;1.92;;;1.73;;
51602;SDS011;37954;51.980;5.850;2023-05-01T10:50:20;1.88;;;1.17;;
51602;SDS011;37954;51.980;5.850;2023-05-01T10:54:31;6.45;;;2.25;;
51602;SDS011;37954;51.980;5.850;2023-05-01T11:07:31;2.97;;;2.13;;
51602;SDS011;37954;51.980;5.850;2023-05-01T11:11:44;3.80;;;2.90;;
51602;SDS011;37954;51.980;5.850;2023-05-01T11:15:58;4.50;;;2.88;;
51602;SDS011;37954;51.980;5.850;2023-05-01T11:24:47;4.63;;;2.58;;
51602;SDS011;37954;51.980;5.850;2023-05-01T11:28:59;2.70;;;2.45;;
51602;SDS011;37954;51.980;5.850;2023-05-01T11:33:11;2.80;;;2.58;;
51602;SDS011;37954;51.980;5.850;2023-05-01T11:37:42;4.05;;;2.05;;
51602;SDS011;37954;51.980;5.850;2023-05-01T11:42:10;2.45;;;1.80;;
51602;SDS011;37954;51.980;5.850;2023-05-01T11:46:25;4.85;;;2.42;;
51602;SDS011;37954;51.980;5.850;2023-05-01T11:50:38;2.80;;;1.85;;
51602;SDS011;37954;51.980;5.850;2023-05-01T11:54:49;2.97;;;1.90;;
51602;SDS011;37954;51.980;5.850;2023-05-01T11:59:14;3.80;;;1.92;;
51602;SDS011;37954;51.980;5.850;2023-05-01T12:03:27;2.35;;;1.83;;
51602;SDS011;37954;51.980;5.850;2023-05-01T12:07:40;2.60;;;2.00;;
51602;SDS011;37954;51.980;5.850;2023-05-01T12:11:52;3.72;;;2.10;;
51602;SDS011;37954;51.980;5.850;2023-05-01T12:16:04;1.75;;;1.65;;
51602;SDS011;37954;51.980;5.850;2023-05-01T12:20:16;3.75;;;2.10;;
51602;SDS011;37954;51.980;5.850;2023-05-01T12:24:28;1.73;;;1.45;;
51602;SDS011;37954;51.980;5.850;2023-05-01T12:28:51;1.75;;;1.40;;
51602;SDS011;37954;51.980;5.850;2023-05-01T12:33:14;1.70;;;1.60;;
51602;SDS011;37954;51.980;5.850;2023-05-01T12:37:30;1.90;;;1.50;;
51602;SDS011;37954;51.980;5.850;2023-05-01T12:41:43;2.78;;;1.65;;
51602;SDS011;37954;51.980;5.850;2023-05-01T12:45:58;2.42;;;1.65;;
51602;SDS011;37954;51.980;5.850;2023-05-01T12:50:10;1.50;;;1.40;;
51602;SDS011;37954;51.980;5.850;2023-05-01T12:54:23;3.20;;;1.80;;
51602;SDS011;37954;51.980;5.850;2023-05-01T12:58:38;2.55;;;1.77;;
51602;SDS011;37954;51.980;5.850;2023-05-01T13:02:50;5.85;;;2.15;;
51602;SDS011;37954;51.980;5.850;2023-05-01T13:07:03;2.45;;;1.70;;
51602;SDS011;37954;51.980;5.850;2023-05-01T13:11:21;2.70;;;2.30;;
51602;SDS011;37954;51.980;5.850;2023-05-01T13:15:33;2.30;;;2.10;;
51602;SDS011;37954;51.980;5.850;2023-05-01T13:19:44;2.20;;;1.52;;
51602;SDS011;37954;51.980;5.850;2023-05-01T13:24:13;1.48;;;1.35;;
51602;SDS011;37954;51.980;5.850;2023-05-01T13:28:25;4.22;;;1.80;;
51602;SDS011;37954;51.980;5.850;2023-05-01T13:32:38;1.40;;;1.30;;
51602;SDS011;37954;51.980;5.850;2023-05-01T13:36:51;1.75;;;1.52;;
51602;SDS011;37954;51.980;5.850;2023-05-01T13:41:04;3.40;;;1.80;;
51602;SDS011;37954;51.980;5.850;2023-05-01T13:45:17;4.70;;;1.50;;
51602;SDS011;37954;51.980;5.850;2023-05-01T13:49:45;2.55;;;1.75;;
51602;SDS011;37954;51.980;5.850;2023-05-01T13:53:58;3.15;;;2.33;;
51602;SDS011;37954;51.980;5.850;2023-05-01T13:58:11;2.83;;;2.53;;
51602;SDS011;37954;51.980;5.850;2023-05-01T14:02:26;10.45;;;3.00;;
51602;SDS011;37954;51.980;5.850;2023-05-01T14:06:43;2.70;;;2.40;;
51602;SDS011;37954;51.980;5.850;2023-05-01T14:10:57;3.58;;;2.35;;
51602;SDS011;37954;51.980;5.850;2023-05-01T14:15:09;3.22;;;2.47;;
51602;SDS011;37954;51.980;5.850;2023-05-01T14:19:22;3.50;;;2.70;;
51602;SDS011;37954;51.980;5.850;2023-05-01T14:23:34;4.68;;;2.65;;
51602;SDS011;37954;51.980;5.850;2023-05-01T14:27:46;3.10;;;2.75;;
51602;SDS011;37954;51.980;5.850;2023-05-01T14:32:01;5.75;;;3.20;;
51602;SDS011;37954;51.980;5.850;2023-05-01T14:36:14;4.38;;;2.70;;
51602;SDS011;37954;51.980;5.850;2023-05-01T14:40:28;3.42;;;2.65;;
51602;SDS011;37954;51.980;5.850;2023-05-01T14:44:40;3.45;;;2.53;;
51602;SDS011;37954;51.980;5.850;2023-05-01T14:48:53;6.05;;;2.72;;
51602;SDS011;37954;51.980;5.850;2023-05-01T14:53:05;3.38;;;2.42;;
51602;SDS011;37954;51.980;5.850;2023-05-01T14:57:17;3.17;;;2.63;;
51602;SDS011;37954;51.980;5.850;2023-05-01T15:01:29;3.58;;;2.50;;
51602;SDS011;37954;51.980;5.850;2023-05-01T15:05:41;2.90;;;2.60;;
51602;SDS011;37954;51.980;5.850;2023-05-01T15:09:52;4.60;;;3.15;;
51602;SDS011;37954;51.980;5.850;2023-05-01T15:14:04;3.67;;;3.08;;
51602;SDS011;37954;51.980;5.850;2023-05-01T15:18:16;3.35;;;3.03;;
51602;SDS011;37954;51.980;5.850;2023-05-01T15:22:28;7.72;;;2.70;;
51602;SDS011;37954;51.980;5.850;2023-05-01T15:26:40;7.22;;;3.15;;
51602;SDS011;37954;51.980;5.850;2023-05-01T15:30:52;7.65;;;2.97;;
51602;SDS011;37954;51.980;5.850;2023-05-01T15:35:06;6.47;;;3.13;;
51602;SDS011;37954;51.980;5.850;2023-05-01T15:39:18;6.50;;;2.58;;
51602;SDS011;37954;51.980;5.850;2023-05-01T15:43:30;3.80;;;2.53;;
51602;SDS011;37954;51.980;5.850;2023-05-01T15:47:42;3.22;;;2.40;;
51602;SDS011;37954;51.980;5.850;2023-05-01T15:51:53;5.03;;;2.47;;
51602;SDS011;37954;51.980;5.850;2023-05-01T15:56:05;5.97;;;2.90;;
51602;SDS011;37954;51.980;5.850;2023-05-01T16:00:17;3.40;;;2.95;;
51602;SDS011;37954;51.980;5.850;2023-05-01T16:04:29;2.92;;;2.70;;
51602;SDS011;37954;51.980;5.850;2023-05-01T16:08:41;5.10;;;3.30;;
51602;SDS011;37954;51.980;5.850;2023-05-01T16:12:53;3.67;;;2.88;;
51602;SDS011;37954;51.980;5.850;2023-05-01T16:17:05;3.05;;;2.70;;
51602;SDS011;37954;51.980;5.850;2023-05-01T16:21:17;3.30;;;3.00;;
51602;SDS011;37954;51.980;5.850;2023-05-01T16:25:30;3.20;;;2.60;;
51602;SDS011;37954;51.980;5.850;2023-05-01T16:29:41;3.33;;;2.95;;
51602;SDS011;37954;51.980;5.850;2023-05-01T16:33:53;4.68;;;3.35;;
51602;SDS011;37954;51.980;5.850;2023-05-01T16:38:06;4.78;;;2.83;;
51602;SDS011;37954;51.980;5.850;2023-05-01T16:42:19;5.13;;;3.22;;
51602;SDS011;37954;51.980;5.850;2023-05-01T16:46:31;4.20;;;2.70;;
51602;SDS011;37954;51.980;5.850;2023-05-01T16:50:44;4.43;;;3.13;;
51602;SDS011;37954;51.980;5.850;2023-05-01T16:54:55;3.08;;;2.63;;
51602;SDS011;37954;51.980;5.850;2023-05-01T16:59:09;3.30;;;2.63;;
51602;SDS011;37954;51.980;5.850;2023-05-01T17:03:21;3.83;;;2.97;;
51602;SDS011;37954;51.980;5.850;2023-05-01T17:07:33;5.25;;;2.97;;
51602;SDS011;37954;51.980;5.850;2023-05-01T17:11:44;7.38;;;2.85;;
51602;SDS011;37954;51.980;5.850;2023-05-01T17:15:56;4.50;;;2.72;;
51602;SDS011;37954;51.980;5.850;2023-05-01T17:20:09;3.85;;;3.08;;
51602;SDS011;37954;51.980;5.850;2023-05-01T17:24:21;4.25;;;2.80;;
51602;SDS011;37954;51.980;5.850;2023-05-01T17:28:33;11.02;;;3.85;;
51602;SDS011;37954;51.980;5.850;2023-05-01T17:32:45;3.72;;;2.75;;
51602;SDS011;37954;51.980;5.850;2023-05-01T17:36:57;3.47;;;3.13;;
51602;SDS011;37954;51.980;5.850;2023-05-01T17:41:08;2.90;;;2.60;;
51602;SDS011;37954;51.980;5.850;2023-05-01T17:45:20;3.70;;;3.17;;
51602;SDS011;37954;51.980;5.850;2023-05-01T17:49:32;3.38;;;3.08;;
51602;SDS011;37954;51.980;5.850;2023-05-01T17:58:33;4.30;;;3.90;;
51602;SDS011;37954;51.980;5.850;2023-05-01T18:02:45;7.38;;;5.38;;
51602;SDS011;37954;51.980;5.850;2023-05-01T18:06:58;8.52;;;5.88;;
51602;SDS011;37954;51.980;5.850;2023-05-01T18:11:10;6.75;;;6.03;;
51602;SDS011;37954;51.980;5.850;2023-05-01T18:15:22;8.68;;;6.55;;
51602;SDS011;37954;51.980;5.850;2023-05-01T18:19:34;8.25;;;6.47;;
51602;SDS011;37954;51.980;5.850;2023-05-01T18:23:46;8.57;;;6.65;;
51602;SDS011;37954;51.980;5.850;2023-05-01T18:27:59;9.93;;;6.22;;
51602;SDS011;37954;51.980;5.850;2023-05-01T18:32:10;8.60;;;6.10;;
51602;SDS011;37954;51.980;5.850;2023-05-01T18:36:24;8.82;;;6.88;;
51602;SDS011;37954;51.980;5.850;2023-05-01T18:40:37;10.50;;;6.43;;
51602;SDS011;37954;51.980;5.850;2023-05-01T18:44:49;9.20;;;7.18;;
51602;SDS011;37954;51.980;5.850;2023-05-01T18:49:01;9.48;;;6.75;;
51602;SDS011;37954;51.980;5.850;2023-05-01T18:53:13;8.10;;;6.80;;
51602;SDS011;37954;51.980;5.850;2023-05-01T18:57:25;10.82;;;7.70;;
51602;SDS011;37954;51.980;5.850;2023-05-01T19:01:38;7.80;;;6.82;;
51602;SDS011;37954;51.980;5.850;2023-05-01T19:05:50;9.65;;;7.32;;
51602;SDS011;37954;51.980;5.850;2023-05-01T19:10:02;8.88;;;7.03;;
51602;SDS011;37954;51.980;5.850;2023-05-01T19:14:14;9.20;;;7.22;;
51602;SDS011;37954;51.980;5.850;2023-05-01T19:18:26;9.15;;;7.45;;
51602;SDS011;37954;51.980;5.850;2023-05-01T19:22:37;8.88;;;7.40;;
51602;SDS011;37954;51.980;5.850;2023-05-01T19:26:49;12.43;;;8.00;;
51602;SDS011;37954;51.980;5.850;2023-05-01T19:31:01;10.55;;;7.95;;
51602;SDS011;37954;51.980;5.850;2023-05-01T19:35:13;9.13;;;7.50;;
51602;SDS011;37954;51.980;5.850;2023-05-01T19:39:25;10.43;;;7.88;;
51602;SDS011;37954;51.980;5.850;2023-05-01T19:43:37;10.77;;;8.07;;
51602;SDS011;37954;51.980;5.850;2023-05-01T19:47:50;11.43;;;8.55;;
51602;SDS011;37954;51.980;5.850;2023-05-01T19:52:02;12.80;;;8.15;;
51602;SDS011;37954;51.980;5.850;2023-05-01T19:56:14;12.63;;;8.57;;
51602;SDS011;37954;51.980;5.850;2023-05-01T20:00:25;13.35;;;9.30;;
51602;SDS011;37954;51.980;5.850;2023-05-01T20:04:38;13.20;;;8.70;;
51602;SDS011;37954;51.980;5.850;2023-05-01T20:08:50;15.77;;;8.15;;
51602;SDS011;37954;51.980;5.850;2023-05-01T20:13:02;12.73;;;9.48;;
51602;SDS011;37954;51.980;5.850;2023-05-01T20:17:20;13.65;;;9.43;;
51602;SDS011;37954;51.980;5.850;2023-05-01T20:21:32;13.68;;;9.70;;
51602;SDS011;37954;51.980;5.850;2023-05-01T20:25:43;16.02;;;10.80;;
51602;SDS011;37954;51.980;5.850;2023-05-01T20:29:58;19.23;;;10.98;;
51602;SDS011;37954;51.980;5.850;2023-05-01T20:34:11;18.65;;;11.43;;
51602;SDS011;37954;51.980;5.850;2023-05-01T20:43:08;14.88;;;11.35;;
51602;SDS011;37954;51.980;5.850;2023-05-01T20:47:19;14.82;;;10.93;;
51602;SDS011;37954;51.980;5.850;2023-05-01T20:51:31;21.05;;;12.13;;
51602;SDS011;37954;51.980;5.850;2023-05-01T20:55:43;17.70;;;12.30;;
51602;SDS011;37954;51.980;5.850;2023-05-01T20:59:55;16.35;;;11.82;;
51602;SDS011;37954;51.980;5.850;2023-05-01T21:04:07;19.30;;;11.65;;
51602;SDS011;37954;51.980;5.850;2023-05-01T21:08:19;18.80;;;12.35;;
51602;SDS011;37954;51.980;5.850;2023-05-01T21:12:31;20.83;;;13.75;;
51602;SDS011;37954;51.980;5.850;2023-05-01T21:16:42;22.67;;;13.25;;
51602;SDS011;37954;51.980;5.850;2023-05-01T21:20:54;18.90;;;13.25;;
51602;SDS011;37954;51.980;5.850;2023-05-01T21:25:06;21.88;;;14.27;;
51602;SDS011;37954;51.980;5.850;2023-05-01T21:29:19;18.77;;;12.55;;
51602;SDS011;37954;51.980;5.850;2023-05-01T21:33:31;21.58;;;13.93;;
51602;SDS011;37954;51.980;5.850;2023-05-01T21:37:43;19.65;;;13.95;;
51602;SDS011;37954;51.980;5.850;2023-05-01T21:41:55;22.27;;;15.48;;
51602;SDS011;37954;51.980;5.850;2023-05-01T21:46:09;21.55;;;14.70;;
51602;SDS011;37954;51.980;5.850;2023-05-01T21:50:26;26.73;;;15.52;;
51602;SDS011;37954;51.980;5.850;2023-05-01T21:54:44;25.80;;;15.90;;
51602;SDS011;37954;51.980;5.850;2023-05-01T21:58:59;21.02;;;13.48;;
51602;SDS011;37954;51.980;5.850;2023-05-01T22:03:13;19.60;;;13.13;;
51602;SDS011;37954;51.980;5.850;2023-05-01T22:07:27;21.48;;;14.10;;
51602;SDS011;37954;51.980;5.850;2023-05-01T22:11:39;22.88;;;12.50;;
51602;SDS011;37954;51.980;5.850;2023-05-01T22:15:50;20.00;;;12.80;;
51602;SDS011;37954;51.980;5.850;2023-05-01T22:20:02;21.13;;;12.43;;
51602;SDS011;37954;51.980;5.850;2023-05-01T22:24:18;22.00;;;13.38;;
51602;SDS011;37954;51.980;5.850;2023-05-01T22:28:30;22.60;;;12.60;;
51602;SDS011;37954;51.980;5.850;2023-05-01T22:32:41;19.65;;;11.82;;
51602;SDS011;37954;51.980;5.850;2023-05-01T22:36:53;22.85;;;12.30;;
51602;SDS011;37954;51.980;5.850;2023-05-01T22:41:04;22.15;;;11.80;;
51602;SDS011;37954;51.980;5.850;2023-05-01T22:45:16;19.50;;;10.90;;
51602;SDS011;37954;51.980;5.850;2023-05-01T22:49:28;16.77;;;9.85;;
51602;SDS011;37954;51.980;5.850;2023-05-01T22:53:40;16.70;;;9.52;;
51602;SDS011;37954;51.980;5.850;2023-05-01T22:57:51;14.52;;;8.63;;
51602;SDS011;37954;51.980;5.850;2023-05-01T23:02:03;14.02;;;8.40;;
51602;SDS011;37954;51.980;5.850;2023-05-01T23:06:16;18.38;;;8.90;;
51602;SDS011;37954;51.980;5.850;2023-05-01T23:10:28;14.82;;;8.32;;
51602;SDS011;37954;51.980;5.850;2023-05-01T23:14:44;15.63;;;8.07;;
51602;SDS011;37954;51.980;5.850;2023-05-01T23:18:56;12.90;;;8.15;;
51602;SDS011;37954;51.980;5.850;2023-05-01T23:23:09;12.70;;;8.02;;
51602;SDS011;37954;51.980;5.850;2023-05-01T23:27:24;12.32;;;8.38;;
51602;SDS011;37954;51.980;5.850;2023-05-01T23:31:35;12.90;;;8.32;;
51602;SDS011;37954;51.980;5.850;2023-05-01T23:35:52;11.05;;;8.25;;
51602;SDS011;37954;51.980;5.850;2023-05-01T23:40:04;12.30;;;8.07;;
51602;SDS011;37954;51.980;5.850;2023-05-01T23:44:17;15.93;;;9.07;;
51602;SDS011;37954;51.980;5.850;2023-05-01T23:48:28;13.18;;;8.68;;
51602;SDS011;37954;51.980;5.850;2023-05-01T23:52:40;13.07;;;8.57;;
51602;SDS011;37954;51.980;5.850;2023-05-01T23:56:52;17.75;;;9.27;;
